Terminal Aerodrome Forecast
Issued by NWS

Home | Current Version | Previous Version | Text Only | Print | Product List | Glossary On
Versions: 1 2 3 4 5 6 7 8 9 10 11 12 13 14 15 16 17 18 19 20 21 22 23 24 25 26 27 28
000
FTUS41 KPBZ 151124
TAFFKL
TAF
KFKL 151124Z 1512/1612 VRB04KT P6SM OVC025
     FM151800 22010G16KT P6SM OVC050
     FM152100 23010G16KT 4SM -SHSN OVC025
     FM152200 24010G16KT 1SM -SHSN OVC008
     FM152300 23008KT 5SM -SHSN OVC015
     FM160300 25012KT P6SM VCSH BKN050=

USA.gov is the U.S. government's official web portal to all federal, state and local government web resources and services.